createdAt,value
2022-09-05T00:01:32.903Z,21.94
2022-09-05T00:04:34.906Z,21.93
2022-09-05T00:07:31.158Z,21.96
2022-09-05T00:10:20.722Z,21.97
2022-09-05T00:12:50.753Z,21.94
2022-09-05T00:15:43.173Z,21.93
2022-09-05T00:20:55.146Z,21.95
2022-09-05T00:24:26.946Z,21.96
2022-09-05T00:25:21.189Z,21.97
2022-09-05T00:28:06.835Z,22.01
2022-09-05T00:31:54.851Z,22.00
2022-09-05T00:34:51.030Z,21.95
2022-09-05T00:37:37.336Z,21.87
2022-09-05T00:40:33.360Z,21.71
2022-09-05T00:43:08.075Z,21.60
2022-09-05T00:46:12.079Z,21.50
2022-09-05T00:49:07.449Z,21.39
2022-09-05T00:51:52.993Z,21.25
2022-09-05T00:54:53.395Z,21.12
2022-09-05T00:57:48.256Z,21.01
2022-09-05T01:00:17.606Z,20.94
2022-09-05T01:03:23.047Z,20.80
2022-09-05T01:06:28.098Z,20.71
2022-09-05T01:09:13.019Z,20.64
2022-09-05T01:11:45.705Z,20.56
2022-09-05T01:14:24.387Z,20.56
2022-09-05T01:17:12.667Z,20.52
2022-09-05T01:19:51.816Z,20.49
2022-09-05T01:22:56.939Z,20.47
2022-09-05T01:25:54.778Z,20.45
2022-09-05T01:29:15.426Z,20.41
2022-09-05T01:31:58.798Z,20.38
2022-09-05T01:34:31.333Z,20.35
2022-09-05T01:37:07.439Z,20.28
2022-09-05T01:40:14.809Z,20.23
2022-09-05T01:42:49.462Z,20.20
2022-09-05T01:45:30.240Z,20.20
2022-09-05T01:48:30.460Z,20.22
2022-09-05T01:51:29.421Z,20.22
2022-09-05T01:54:16.105Z,20.24
2022-09-05T01:57:33.233Z,20.26
2022-09-05T02:00:12.582Z,20.26
2022-09-05T02:03:07.085Z,20.27
2022-09-05T02:06:19.395Z,20.26
2022-09-05T02:08:49.084Z,20.25
2022-09-05T02:11:16.609Z,20.22
2022-09-05T02:14:34.507Z,20.20
2022-09-05T02:17:49.681Z,20.16
2022-09-05T02:20:46.913Z,20.15
2022-09-05T02:23:40.689Z,20.18
2022-09-05T02:26:34.655Z,20.19
2022-09-05T02:29:39.632Z,20.21
2022-09-05T02:32:18.424Z,20.20
2022-09-05T02:34:58.973Z,20.21
2022-09-05T02:40:07.750Z,20.21
2022-09-05T02:45:03.629Z,20.21
2022-09-05T02:45:08.931Z,20.27
2022-09-05T02:46:45.504Z,20.32
2022-09-05T02:50:58.280Z,20.33
2022-09-05T02:57:25.072Z,20.33
2022-09-05T02:57:35.415Z,20.32
2022-09-05T02:59:08.145Z,20.32
2022-09-05T03:01:46.930Z,20.33
2022-09-05T03:04:13.761Z,20.34
2022-09-05T03:06:55.022Z,20.35
2022-09-05T03:10:12.509Z,20.35
2022-09-05T03:12:41.861Z,20.33
2022-09-05T03:15:56.515Z,20.35
2022-09-05T03:18:26.364Z,20.35
2022-09-05T03:21:14.560Z,20.37
2022-09-05T03:24:10.926Z,20.41
2022-09-05T03:27:14.704Z,20.39
2022-09-05T03:30:18.904Z,20.38
2022-09-05T03:33:07.374Z,20.38
2022-09-05T03:35:49.079Z,20.38
2022-09-05T03:38:56.878Z,20.41
2022-09-05T03:41:40.587Z,20.40
2022-09-05T03:44:16.984Z,20.36
2022-09-05T03:47:11.774Z,20.35
2022-09-05T03:55:52.833Z,20.31
2022-09-05T03:57:17.190Z,20.29
2022-09-05T03:57:27.198Z,20.28
2022-09-05T03:59:21.379Z,20.30
2022-09-05T04:02:57.966Z,20.32
2022-09-05T04:08:18.541Z,20.30
2022-09-05T04:08:24.412Z,20.29
2022-09-05T04:10:42.500Z,20.27
2022-09-05T04:13:20.719Z,20.28
2022-09-05T04:16:01.722Z,20.29
2022-09-05T04:18:39.478Z,20.26
2022-09-05T04:21:34.660Z,20.24
2022-09-05T04:24:10.444Z,20.20
2022-09-05T04:26:58.396Z,20.18
2022-09-05T04:29:28.218Z,20.16
2022-09-05T04:32:18.841Z,20.14
2022-09-05T04:35:11.898Z,20.15
2022-09-05T04:37:48.938Z,20.13
2022-09-05T04:40:41.011Z,20.09
2022-09-05T04:43:19.005Z,20.07
2022-09-05T04:45:54.729Z,20.07
2022-09-05T04:48:35.021Z,20.07
2022-09-05T04:51:21.016Z,20.04
2022-09-05T04:54:05.327Z,20.03
2022-09-05T04:56:38.067Z,20.01
2022-09-05T05:01:40.730Z,19.99
2022-09-05T05:06:08.110Z,19.94
2022-09-05T05:06:09.419Z,19.91
2022-09-05T05:07:57.888Z,19.86
2022-09-05T05:16:34.079Z,19.83
2022-09-05T05:18:11.478Z,19.81
2022-09-05T05:18:12.956Z,19.76
2022-09-05T05:19:33.485Z,19.71
2022-09-05T05:22:04.980Z,19.70
2022-09-05T05:24:42.463Z,19.68
2022-09-05T05:27:56.906Z,19.70
2022-09-05T05:30:31.972Z,19.69
2022-09-05T05:33:04.015Z,19.69
2022-09-05T05:35:33.632Z,19.67
2022-09-05T05:38:37.532Z,19.65
2022-09-05T05:41:19.062Z,19.65
2022-09-05T05:43:47.721Z,19.64
2022-09-05T05:46:27.186Z,19.64
2022-09-05T05:49:04.221Z,19.66
2022-09-05T05:52:01.248Z,19.66
2022-09-05T05:54:36.246Z,19.66
2022-09-05T05:57:56.919Z,19.64
2022-09-05T06:00:29.731Z,19.64
2022-09-05T06:03:38.116Z,19.63
2022-09-05T06:06:32.724Z,19.62
2022-09-05T06:12:01.145Z,19.64
2022-09-05T06:15:01.763Z,19.64
2022-09-05T06:15:26.907Z,19.67
2022-09-05T06:17:54.081Z,19.69
2022-09-05T06:22:06.423Z,19.73
2022-09-05T06:23:46.445Z,19.78
2022-09-05T06:26:42.689Z,19.79
2022-09-05T06:29:15.497Z,19.81
2022-09-05T06:32:14.185Z,19.81
2022-09-05T06:34:46.691Z,19.83
2022-09-05T06:37:46.818Z,19.84
2022-09-05T06:40:30.250Z,19.88
2022-09-05T06:43:22.048Z,19.90
2022-09-05T06:46:05.044Z,19.92
2022-09-05T06:48:46.045Z,19.93
2022-09-05T06:51:48.703Z,19.94
2022-09-05T06:55:00.043Z,19.96
2022-09-05T06:57:35.809Z,20.00
2022-09-05T07:00:33.920Z,20.07
2022-09-05T07:03:13.557Z,20.08
2022-09-05T07:05:50.371Z,20.12
2022-09-05T07:09:02.707Z,20.14
2022-09-05T07:12:06.058Z,20.16
2022-09-05T07:14:36.174Z,20.21
2022-09-05T07:17:59.695Z,20.25
2022-09-05T07:21:15.968Z,20.29
2022-09-05T07:24:09.335Z,20.33
2022-09-05T07:26:53.751Z,20.36
2022-09-05T07:29:35.251Z,20.40
2022-09-05T07:32:06.494Z,20.44
2022-09-05T07:34:38.080Z,20.48
2022-09-05T07:37:15.114Z,20.56
2022-09-05T07:39:57.968Z,20.62
2022-09-05T07:43:09.360Z,20.65
2022-09-05T07:45:55.277Z,20.67
2022-09-05T07:48:34.856Z,20.69
2022-09-05T07:56:52.760Z,20.77
2022-09-05T07:56:54.953Z,20.72
2022-09-05T07:59:53.698Z,20.85
2022-09-05T08:02:20.758Z,20.88
2022-09-05T08:04:47.746Z,20.93
2022-09-05T08:07:48.272Z,20.98
2022-09-05T08:10:15.390Z,21.10
2022-09-05T08:13:24.723Z,21.19
2022-09-05T08:16:10.997Z,21.23
2022-09-05T08:18:50.410Z,21.24
2022-09-05T08:21:40.009Z,21.26
2022-09-05T08:24:27.064Z,21.31
2022-09-05T08:27:06.077Z,21.33
2022-09-05T08:30:25.656Z,21.34
2022-09-05T08:33:13.208Z,21.38
2022-09-05T08:35:50.182Z,21.40
2022-09-05T08:38:21.729Z,21.41
2022-09-05T08:41:42.980Z,21.39
2022-09-05T08:46:35.293Z,21.39
2022-09-05T08:47:25.391Z,21.45
2022-09-05T08:50:27.230Z,21.49
2022-09-05T08:53:28.368Z,21.51
2022-09-05T08:56:01.536Z,21.56
2022-09-05T08:58:43.699Z,21.61
2022-09-05T09:01:14.149Z,21.64
2022-09-05T09:03:59.919Z,21.66
2022-09-05T09:07:29.166Z,21.70
2022-09-05T09:10:01.681Z,21.71
2022-09-05T09:13:05.101Z,21.72
2022-09-05T09:15:46.209Z,21.71
2022-09-05T09:18:16.401Z,21.73
2022-09-05T09:20:56.998Z,21.76
2022-09-05T09:23:45.067Z,21.80
2022-09-05T09:26:24.552Z,21.84
2022-09-05T09:29:21.204Z,21.88
2022-09-05T09:32:13.905Z,21.89
2022-09-05T09:34:53.532Z,21.90
2022-09-05T09:37:51.832Z,21.94
2022-09-05T09:40:38.423Z,21.99
2022-09-05T09:43:23.434Z,22.06
2022-09-05T09:46:18.469Z,22.12
2022-09-05T09:49:03.329Z,22.13
2022-09-05T09:52:19.416Z,22.17
2022-09-05T09:55:09.642Z,22.23
2022-09-05T09:58:12.381Z,22.30
2022-09-05T10:01:35.898Z,22.36
2022-09-05T10:08:22.971Z,22.42
2022-09-05T10:10:51.338Z,22.52
2022-09-05T10:10:51.763Z,22.47
2022-09-05T10:13:27.338Z,22.56
2022-09-05T10:16:16.145Z,22.54
2022-09-05T10:18:54.644Z,22.56
2022-09-05T10:21:40.388Z,22.56
2022-09-05T10:24:29.971Z,22.58
2022-09-05T10:27:13.951Z,22.62
2022-09-05T10:30:08.093Z,22.64
2022-09-05T10:35:07.968Z,22.64
2022-09-05T10:36:17.560Z,22.60
2022-09-05T10:38:47.481Z,22.59
2022-09-05T10:41:21.140Z,22.58
2022-09-05T10:44:02.520Z,22.59
2022-09-05T10:46:56.432Z,22.58
2022-09-05T10:49:34.893Z,22.58
2022-09-05T10:52:19.231Z,22.58
2022-09-05T10:55:18.738Z,22.61
2022-09-05T10:57:48.356Z,22.60
2022-09-05T11:02:22.999Z,22.59
2022-09-05T11:03:37.273Z,22.58
2022-09-05T11:06:12.272Z,22.57
2022-09-05T11:08:39.100Z,22.55
2022-09-05T11:11:34.594Z,22.53
2022-09-05T11:14:26.394Z,22.54
2022-09-05T11:17:07.359Z,22.54
2022-09-05T11:19:47.661Z,22.52
2022-09-05T11:22:22.933Z,22.54
2022-09-05T11:25:03.816Z,22.58
2022-09-05T11:27:36.595Z,22.60
2022-09-05T11:30:30.991Z,22.59
2022-09-05T11:37:35.804Z,22.64
2022-09-05T11:39:57.629Z,22.71
2022-09-05T11:40:07.349Z,22.75
2022-09-05T11:42:50.448Z,22.80
2022-09-05T11:45:46.109Z,22.83
2022-09-05T11:48:53.574Z,22.86
2022-09-05T11:51:26.038Z,22.86
2022-09-05T11:54:28.895Z,22.86
2022-09-05T11:57:02.202Z,22.88
2022-09-05T12:00:31.947Z,22.95
2022-09-05T12:03:01.838Z,23.01
2022-09-05T12:05:59.417Z,23.07
2022-09-05T12:08:28.804Z,23.10
2022-09-05T12:11:27.858Z,23.12
2022-09-05T12:14:37.002Z,23.14
2022-09-05T12:17:35.103Z,23.14
2022-09-05T12:20:17.270Z,23.11
2022-09-05T12:23:53.606Z,23.06
2022-09-05T12:27:41.240Z,23.00
2022-09-05T12:29:29.332Z,22.97
2022-09-05T12:33:28.353Z,22.94
2022-09-05T12:36:03.852Z,22.93
2022-09-05T12:41:43.150Z,22.91
2022-09-05T12:42:10.704Z,22.92
2022-09-05T12:44:41.192Z,22.93
2022-09-05T12:47:16.754Z,22.94
2022-09-05T12:50:02.699Z,22.95
2022-09-05T12:52:34.078Z,22.96
2022-09-05T12:55:11.341Z,22.97
2022-09-05T13:02:36.300Z,22.97
2022-09-05T13:03:07.759Z,22.98
2022-09-05T13:04:05.992Z,22.98
2022-09-05T13:06:39.285Z,22.98
2022-09-05T13:09:16.984Z,22.97
2022-09-05T13:14:46.802Z,22.97
2022-09-05T13:15:18.670Z,22.97
2022-09-05T13:18:17.570Z,22.97
2022-09-05T13:21:00.386Z,22.97
2022-09-05T13:23:39.655Z,22.94
2022-09-05T13:26:13.393Z,22.91
2022-09-05T13:29:21.315Z,22.93
2022-09-05T13:38:07.998Z,22.94
2022-09-05T13:38:19.619Z,22.92
2022-09-05T13:38:37.797Z,22.87
2022-09-05T13:41:27.599Z,22.85
2022-09-05T13:44:00.394Z,22.81
2022-09-05T13:46:57.409Z,22.81
2022-09-05T13:49:55.538Z,22.83
2022-09-05T13:52:45.178Z,22.84
2022-09-05T13:55:40.202Z,22.86
2022-09-05T13:58:35.232Z,22.85
2022-09-05T14:01:28.556Z,22.84
2022-09-05T14:03:57.282Z,22.84
2022-09-05T14:06:45.453Z,22.85
2022-09-05T14:09:43.003Z,22.86
2022-09-05T14:12:33.411Z,22.85
2022-09-05T14:15:25.229Z,22.85
2022-09-05T14:17:58.237Z,22.83
2022-09-05T14:20:49.694Z,22.83
2022-09-05T14:23:19.473Z,22.86
2022-09-05T14:26:14.779Z,22.87
2022-09-05T14:28:52.291Z,22.84
2022-09-05T14:35:35.290Z,22.84
2022-09-05T14:37:49.994Z,22.85
2022-09-05T14:38:09.314Z,22.83
2022-09-05T14:41:15.685Z,22.81
2022-09-05T14:43:59.501Z,22.78
2022-09-05T14:46:45.652Z,22.78
2022-09-05T14:49:50.488Z,22.77
2022-09-05T14:52:30.671Z,22.77
2022-09-05T15:02:38.482Z,22.81
2022-09-05T15:02:44.082Z,22.81
2022-09-05T15:06:41.200Z,22.82
2022-09-05T15:12:21.289Z,22.85
2022-09-05T15:12:33.208Z,22.85
2022-09-05T15:15:20.435Z,22.85
2022-09-05T15:17:50.823Z,22.84
2022-09-05T15:20:37.512Z,22.85
2022-09-05T15:23:16.745Z,22.87
2022-09-05T15:26:02.902Z,22.88
2022-09-05T15:28:50.934Z,22.87
2022-09-05T15:31:39.456Z,22.86
2022-09-05T15:34:28.427Z,22.90
2022-09-05T15:36:56.726Z,22.95
2022-09-05T15:39:43.974Z,23.00
2022-09-05T15:42:22.697Z,23.04
2022-09-05T15:45:09.631Z,23.10
2022-09-05T15:47:39.715Z,23.14
2022-09-05T15:50:38.570Z,23.16
2022-09-05T15:53:05.637Z,23.22
2022-09-05T15:55:46.055Z,23.22
2022-09-05T15:58:19.621Z,23.23
2022-09-05T16:00:55.690Z,23.22
2022-09-05T16:04:01.188Z,23.20
2022-09-05T16:10:35.757Z,23.14
2022-09-05T16:10:36.591Z,23.15
2022-09-05T16:18:23.374Z,23.12
2022-09-05T16:23:13.154Z,23.10
2022-09-05T16:23:37.372Z,23.06
2022-09-05T16:24:06.124Z,23.00
2022-09-05T16:26:40.881Z,22.99
2022-09-05T16:29:25.209Z,22.99
2022-09-05T16:32:25.562Z,22.99
2022-09-05T16:34:57.759Z,22.97
2022-09-05T16:37:40.706Z,22.99
2022-09-05T16:40:26.196Z,22.99
2022-09-05T16:43:18.401Z,23.02
2022-09-05T16:45:54.743Z,23.02
2022-09-05T16:48:37.561Z,23.02
2022-09-05T16:51:35.507Z,23.02
2022-09-05T16:54:33.895Z,23.01
2022-09-05T16:57:17.038Z,23.02
2022-09-05T16:59:55.353Z,23.05
2022-09-05T17:02:36.411Z,23.07
2022-09-05T17:05:38.296Z,23.11
2022-09-05T17:08:26.024Z,23.12
2022-09-05T17:11:13.728Z,23.13
2022-09-05T17:14:06.458Z,23.15
2022-09-05T17:16:56.532Z,23.20
2022-09-05T17:19:33.671Z,23.22
2022-09-05T17:25:16.870Z,23.20
2022-09-05T17:29:30.890Z,23.22
2022-09-05T17:29:32.752Z,23.22
2022-09-05T17:33:45.074Z,23.23
2022-09-05T17:36:21.668Z,23.22
2022-09-05T17:39:10.760Z,23.20
2022-09-05T17:42:09.615Z,23.18
2022-09-05T17:44:46.643Z,23.19
2022-09-05T17:47:17.381Z,23.18
2022-09-05T17:50:00.434Z,23.17
2022-09-05T17:52:27.669Z,23.16
2022-09-05T17:55:10.317Z,23.15
2022-09-05T17:57:39.451Z,23.13
2022-09-05T18:00:49.043Z,23.14
2022-09-05T18:03:38.970Z,23.14
2022-09-05T18:06:15.689Z,23.12
2022-09-05T18:08:46.381Z,23.12
2022-09-05T18:14:29.809Z,23.12
2022-09-05T18:19:57.843Z,23.09
2022-09-05T18:22:30.038Z,23.10
2022-09-05T18:28:22.492Z,23.11
2022-09-05T18:30:49.624Z,23.11
2022-09-05T18:33:56.326Z,23.11
2022-09-05T18:36:25.703Z,23.10
2022-09-05T18:39:24.346Z,23.08
2022-09-05T18:42:09.127Z,23.05
2022-09-05T18:44:55.342Z,23.03
2022-09-05T18:47:53.237Z,23.03
2022-09-05T18:50:32.463Z,23.03
2022-09-05T18:53:09.106Z,23.03
2022-09-05T18:56:13.363Z,23.01
2022-09-05T18:59:13.358Z,22.98
2022-09-05T19:01:53.791Z,23.01
2022-09-05T19:04:51.209Z,23.01
2022-09-05T19:07:35.804Z,23.00
2022-09-05T19:10:36.281Z,22.98
2022-09-05T19:12:56.386Z,22.97
2022-09-05T19:15:34.288Z,22.96
2022-09-05T19:18:26.386Z,22.96
2022-09-05T19:21:12.179Z,22.94
2022-09-05T19:24:02.603Z,22.95
2022-09-05T19:26:33.889Z,22.94
2022-09-05T19:36:47.390Z,22.92
2022-09-05T19:36:52.112Z,22.94
2022-09-05T19:37:07.385Z,22.91
2022-09-05T19:37:54.832Z,22.89
2022-09-05T19:47:31.136Z,22.86
2022-09-05T19:47:39.123Z,22.86
2022-09-05T19:47:39.457Z,22.83
2022-09-05T19:49:12.546Z,22.81
2022-09-05T19:51:47.664Z,22.79
2022-09-05T19:54:30.481Z,22.80
2022-09-05T19:57:07.761Z,22.82
2022-09-05T19:59:39.943Z,22.78
2022-09-05T20:02:22.057Z,22.76
2022-09-05T20:04:56.338Z,22.73
2022-09-05T20:07:29.211Z,22.72
2022-09-05T20:10:05.814Z,22.69
2022-09-05T20:12:38.883Z,22.68
2022-09-05T20:15:24.212Z,22.66
2022-09-05T20:17:53.788Z,22.64
2022-09-05T20:20:27.364Z,22.61
2022-09-05T20:23:22.087Z,22.60
2022-09-05T20:25:53.212Z,22.60
2022-09-05T20:28:27.317Z,22.59
2022-09-05T20:31:02.961Z,22.58
2022-09-05T20:33:44.072Z,22.56
2022-09-05T20:43:07.949Z,22.55
2022-09-05T20:43:29.409Z,22.54
2022-09-05T20:43:35.040Z,22.55
2022-09-05T20:44:51.921Z,22.54
2022-09-05T20:54:05.522Z,22.54
2022-09-05T20:54:20.331Z,22.52
2022-09-05T20:54:28.316Z,22.53
2022-09-05T20:56:23.269Z,22.53
2022-09-05T20:58:51.411Z,22.51
2022-09-05T21:01:22.862Z,22.52
2022-09-05T21:04:01.356Z,22.50
2022-09-05T21:06:36.628Z,22.47
2022-09-05T21:09:22.523Z,22.45
2022-09-05T21:12:14.880Z,22.45
2022-09-05T21:15:07.326Z,22.44
2022-09-05T21:18:01.520Z,22.42
2022-09-05T21:20:28.798Z,22.42
2022-09-05T21:22:55.580Z,22.41
2022-09-05T21:25:25.688Z,22.41
2022-09-05T21:28:21.939Z,22.40
2022-09-05T21:30:48.843Z,22.42
2022-09-05T21:33:20.099Z,22.42
2022-09-05T21:35:59.433Z,22.42
2022-09-05T21:38:33.596Z,22.40
2022-09-05T21:41:05.051Z,22.40
2022-09-05T21:47:33.118Z,22.40
2022-09-05T21:47:46.173Z,22.40
2022-09-05T21:49:09.234Z,22.39
2022-09-05T21:51:37.471Z,22.39
2022-09-05T21:59:14.714Z,22.38
2022-09-05T21:59:25.012Z,22.38
2022-09-05T21:59:47.486Z,22.39
2022-09-05T22:02:17.023Z,22.42
2022-09-05T22:04:44.087Z,22.43
2022-09-05T22:07:32.575Z,22.43
2022-09-05T22:10:04.497Z,22.42
2022-09-05T22:12:36.228Z,22.43
2022-09-05T22:15:26.176Z,22.41
2022-09-05T22:18:16.593Z,22.38
2022-09-05T22:21:34.125Z,22.29
2022-09-05T22:24:08.880Z,22.20
2022-09-05T22:27:11.767Z,22.08
2022-09-05T22:29:56.743Z,21.95
2022-09-05T22:32:34.361Z,21.82
2022-09-05T22:35:27.010Z,21.71
2022-09-05T22:37:59.361Z,21.59
2022-09-05T22:40:27.986Z,21.51
2022-09-05T22:43:00.318Z,21.45
2022-09-05T22:45:28.656Z,21.38
2022-09-05T22:47:55.998Z,21.30
2022-09-05T22:50:23.836Z,21.18
2022-09-05T22:52:50.858Z,21.12
2022-09-05T22:55:17.703Z,21.01
2022-09-05T22:57:46.719Z,20.85
2022-09-05T23:00:14.037Z,20.76
2022-09-05T23:02:41.023Z,20.69
2022-09-05T23:05:11.490Z,20.64
2022-09-05T23:07:39.007Z,20.62
2022-09-05T23:10:06.029Z,20.59
2022-09-05T23:12:42.525Z,20.60
2022-09-05T23:15:25.641Z,20.59
2022-09-05T23:17:57.698Z,20.59
2022-09-05T23:20:26.571Z,20.59
2022-09-05T23:22:53.578Z,20.57
2022-09-05T23:25:21.760Z,20.56
2022-09-05T23:28:05.332Z,20.53
2022-09-05T23:30:32.150Z,20.52
2022-09-05T23:32:58.920Z,20.53
2022-09-05T23:35:29.210Z,20.53
2022-09-05T23:38:03.590Z,20.55
2022-09-05T23:40:30.484Z,20.54
2022-09-05T23:43:01.348Z,20.55
2022-09-05T23:45:29.484Z,20.55
2022-09-05T23:48:00.046Z,20.55
2022-09-05T23:50:28.216Z,20.56
2022-09-05T23:52:55.310Z,20.56
2022-09-05T23:55:23.566Z,20.56
2022-09-05T23:57:56.438Z,20.56
